createdAt,value
2022-08-27T00:02:17.740Z,5.43
2022-08-27T00:05:19.471Z,5.78
2022-08-27T00:08:20.798Z,6.25
2022-08-27T00:11:22.798Z,5.43
2022-08-27T00:14:24.772Z,5.55
2022-08-27T00:17:26.278Z,5.28
2022-08-27T00:20:28.310Z,6.57
2022-08-27T00:23:30.012Z,4.78
2022-08-27T00:26:31.397Z,5.00
2022-08-27T00:29:32.706Z,5.18
2022-08-27T00:32:34.129Z,5.00
2022-08-27T00:35:35.589Z,5.05
2022-08-27T00:38:38.509Z,4.78
2022-08-27T00:41:40.445Z,4.60
2022-08-27T00:44:41.717Z,4.63
2022-08-27T00:47:45.314Z,4.88
2022-08-27T00:50:48.590Z,4.93
2022-08-27T00:53:51.286Z,4.95
2022-08-27T00:56:52.697Z,4.43
2022-08-27T00:59:54.390Z,4.38
2022-08-27T01:02:55.701Z,4.55
2022-08-27T01:05:58.186Z,4.85
2022-08-27T01:09:03.110Z,4.90
2022-08-27T01:12:04.866Z,4.68
2022-08-27T01:15:08.407Z,4.95
2022-08-27T01:18:13.407Z,4.32
2022-08-27T01:21:30.693Z,4.90
2022-08-27T01:24:37.813Z,5.07
2022-08-27T01:27:39.409Z,4.90
2022-08-27T01:30:40.875Z,5.65
2022-08-27T01:33:52.955Z,4.93
2022-08-27T01:36:57.367Z,4.75
2022-08-27T01:39:59.424Z,5.28
2022-08-27T01:43:01.301Z,5.00
2022-08-27T01:46:02.619Z,5.40
2022-08-27T01:49:04.093Z,5.32
2022-08-27T01:52:05.459Z,5.45
2022-08-27T01:55:09.335Z,6.18
2022-08-27T01:58:14.112Z,5.10
2022-08-27T02:01:16.776Z,5.28
2022-08-27T02:04:18.260Z,5.53
2022-08-27T02:07:19.524Z,6.68
2022-08-27T02:10:25.614Z,7.18
2022-08-27T02:13:27.302Z,7.03
2022-08-27T02:16:28.756Z,6.38
2022-08-27T02:19:30.754Z,6.57
2022-08-27T02:22:32.049Z,6.25
2022-08-27T02:25:33.463Z,6.43
2022-08-27T02:28:35.850Z,6.00
2022-08-27T02:31:37.276Z,6.45
2022-08-27T02:34:38.613Z,6.45
2022-08-27T02:37:39.897Z,5.40
2022-08-27T02:40:41.261Z,5.88
2022-08-27T02:43:43.053Z,6.00
2022-08-27T02:46:44.367Z,5.82
2022-08-27T02:49:46.057Z,7.53
2022-08-27T02:52:47.509Z,6.80
2022-08-27T02:55:48.833Z,6.10
2022-08-27T02:58:50.131Z,7.05
2022-08-27T03:01:51.680Z,5.55
2022-08-27T03:04:53.047Z,5.93
2022-08-27T03:07:54.450Z,5.85
2022-08-27T03:10:56.868Z,6.22
2022-08-27T03:13:58.986Z,5.70
2022-08-27T03:17:20.292Z,5.80
2022-08-27T03:20:22.708Z,5.90
2022-08-27T03:23:25.154Z,5.63
2022-08-27T03:26:27.014Z,5.45
2022-08-27T03:29:28.320Z,5.20
2022-08-27T03:32:29.640Z,5.30
2022-08-27T03:35:31.039Z,5.75
2022-08-27T03:38:34.138Z,5.40
2022-08-27T03:41:43.805Z,5.18
2022-08-27T03:44:57.005Z,4.80
2022-08-27T03:47:58.297Z,4.90
2022-08-27T03:51:05.056Z,4.93
2022-08-27T03:54:06.542Z,4.65
2022-08-27T03:57:07.909Z,5.05
2022-08-27T04:00:14.173Z,5.28
2022-08-27T04:03:15.508Z,4.72
2022-08-27T04:06:16.943Z,5.10
2022-08-27T04:09:18.292Z,5.13
2022-08-27T04:12:19.554Z,5.15
2022-08-27T04:15:20.930Z,4.53
2022-08-27T04:18:22.412Z,4.72
2022-08-27T04:21:24.178Z,4.93
2022-08-27T04:24:25.486Z,4.57
2022-08-27T04:27:27.498Z,4.25
2022-08-27T04:30:28.959Z,4.78
2022-08-27T04:33:32.126Z,4.45
2022-08-27T04:36:33.502Z,4.53
2022-08-27T04:39:34.942Z,4.57
2022-08-27T04:42:36.413Z,4.50
2022-08-27T04:45:44.410Z,4.60
2022-08-27T04:48:45.672Z,4.72
2022-08-27T04:51:50.482Z,5.30
2022-08-27T04:54:51.999Z,4.45
2022-08-27T04:57:53.344Z,4.50
2022-08-27T05:00:56.356Z,4.85
2022-08-27T05:04:01.166Z,5.25
2022-08-27T05:07:02.450Z,4.57
2022-08-27T05:10:03.825Z,5.03
2022-08-27T05:13:05.181Z,4.97
2022-08-27T05:16:07.839Z,4.63
2022-08-27T05:19:10.473Z,5.20
2022-08-27T05:22:11.773Z,4.97
2022-08-27T05:25:13.140Z,5.25
2022-08-27T05:28:15.464Z,5.20
2022-08-27T05:31:17.765Z,4.60
2022-08-27T05:34:24.573Z,4.97
2022-08-27T05:37:28.553Z,5.70
2022-08-27T05:40:30.067Z,4.75
2022-08-27T05:43:32.178Z,5.30
2022-08-27T05:46:33.578Z,5.18
2022-08-27T05:49:34.959Z,5.57
2022-08-27T05:52:36.505Z,4.80
2022-08-27T05:55:39.097Z,4.78
2022-08-27T05:58:59.224Z,5.53
2022-08-27T06:02:00.627Z,5.63
2022-08-27T06:05:02.007Z,4.57
2022-08-27T06:08:04.017Z,5.18
2022-08-27T06:11:06.419Z,4.47
2022-08-27T06:14:09.351Z,4.90
2022-08-27T06:17:10.723Z,5.00
2022-08-27T06:20:12.120Z,5.00
2022-08-27T06:23:13.410Z,5.18
2022-08-27T06:26:16.355Z,5.20
2022-08-27T06:29:17.699Z,5.18
2022-08-27T06:32:20.018Z,5.25
2022-08-27T06:35:21.438Z,4.97
2022-08-27T06:38:22.717Z,5.15
2022-08-27T06:41:27.063Z,4.60
2022-08-27T06:44:29.452Z,5.10
2022-08-27T06:47:32.562Z,4.80
2022-08-27T06:50:40.642Z,4.38
2022-08-27T06:53:42.197Z,4.93
2022-08-27T06:56:44.499Z,6.00
2022-08-27T06:59:45.809Z,4.80
2022-08-27T07:02:47.089Z,5.00
2022-08-27T07:05:48.604Z,5.22
2022-08-27T07:08:53.320Z,4.85
2022-08-27T07:11:55.363Z,4.60
2022-08-27T07:14:56.674Z,4.72
2022-08-27T07:17:58.644Z,6.18
2022-08-27T07:21:00.535Z,5.85
2022-08-27T07:24:04.833Z,5.25
2022-08-27T07:27:06.861Z,4.65
2022-08-27T07:30:09.650Z,4.90
2022-08-27T07:33:11.631Z,5.07
2022-08-27T07:36:13.062Z,5.40
2022-08-27T07:39:16.601Z,4.38
2022-08-27T07:42:36.689Z,4.22
2022-08-27T07:45:44.473Z,4.28
2022-08-27T07:48:46.914Z,4.78
2022-08-27T07:51:48.875Z,4.63
2022-08-27T07:54:51.546Z,4.82
2022-08-27T07:57:52.952Z,4.35
2022-08-27T08:00:55.613Z,4.32
2022-08-27T08:03:56.929Z,4.35
2022-08-27T08:06:58.262Z,3.85
2022-08-27T08:09:59.958Z,4.30
2022-08-27T08:13:01.282Z,4.30
2022-08-27T08:16:02.894Z,4.38
2022-08-27T08:19:04.189Z,4.45
2022-08-27T08:22:06.064Z,4.28
2022-08-27T08:25:07.786Z,5.00
2022-08-27T08:28:14.405Z,4.63
2022-08-27T08:31:15.829Z,5.43
2022-08-27T08:34:18.344Z,4.20
2022-08-27T08:37:19.946Z,5.40
2022-08-27T08:40:28.285Z,4.95
2022-08-27T08:43:40.345Z,4.45
2022-08-27T08:46:48.502Z,5.57
2022-08-27T08:49:49.815Z,3.88
2022-08-27T08:52:57.771Z,4.15
2022-08-27T08:56:01.708Z,4.00
2022-08-27T08:59:10.841Z,4.28
2022-08-27T09:02:14.414Z,4.13
2022-08-27T09:08:34.172Z,3.90
2022-08-27T09:11:43.722Z,4.30
2022-08-27T09:14:53.434Z,3.80
2022-08-27T09:18:05.545Z,4.53
2022-08-27T09:21:27.455Z,3.97
2022-08-27T09:24:41.334Z,4.20
2022-08-27T09:27:42.915Z,4.47
2022-08-27T09:30:45.088Z,4.22
2022-08-27T09:33:56.193Z,4.10
2022-08-27T09:37:07.336Z,3.88
2022-08-27T09:40:23.039Z,3.95
2022-08-27T09:43:28.234Z,3.58
2022-08-27T09:46:29.830Z,4.30
2022-08-27T09:49:34.502Z,3.80
2022-08-27T09:52:45.116Z,3.42
2022-08-27T09:56:09.600Z,3.80
2022-08-27T09:59:26.770Z,3.92
2022-08-27T10:02:28.257Z,3.83
2022-08-27T10:05:36.795Z,3.63
2022-08-27T10:08:43.538Z,3.65
2022-08-27T10:11:49.659Z,3.97
2022-08-27T10:14:53.048Z,3.97
2022-08-27T10:21:12.211Z,3.78
2022-08-27T10:24:16.966Z,4.18
2022-08-27T10:27:24.680Z,3.85
2022-08-27T10:30:32.773Z,3.42
2022-08-27T10:33:34.054Z,3.92
2022-08-27T10:36:54.216Z,3.85
2022-08-27T10:40:11.054Z,3.53
2022-08-27T10:43:18.526Z,3.38
2022-08-27T10:46:50.469Z,3.42
2022-08-27T10:50:04.339Z,2.92
2022-08-27T10:53:10.345Z,3.58
2022-08-27T10:56:38.155Z,3.55
2022-08-27T10:59:48.934Z,3.78
2022-08-27T11:02:54.064Z,3.90
2022-08-27T11:05:55.965Z,3.65
2022-08-27T11:08:59.269Z,3.97
2022-08-27T11:15:30.627Z,3.88
2022-08-27T11:18:44.417Z,4.00
2022-08-27T11:21:51.725Z,3.90
2022-08-27T11:24:56.294Z,3.55
2022-08-27T11:27:57.858Z,4.20
2022-08-27T11:31:06.721Z,4.28
2022-08-27T11:34:21.839Z,4.00
2022-08-27T11:37:37.375Z,3.90
2022-08-27T11:40:50.977Z,3.70
2022-08-27T11:43:53.132Z,3.97
2022-08-27T11:46:56.465Z,4.20
2022-08-27T11:49:59.051Z,3.53
2022-08-27T11:53:01.949Z,3.50
2022-08-27T11:56:19.953Z,3.50
2022-08-27T11:59:22.873Z,3.63
2022-08-27T12:02:26.911Z,4.07
2022-08-27T12:05:48.506Z,4.47
2022-08-27T12:08:50.247Z,3.55
2022-08-27T12:12:09.869Z,3.35
2022-08-27T12:15:22.620Z,4.45
2022-08-27T12:18:51.485Z,3.60
2022-08-27T12:22:15.997Z,3.60
2022-08-27T12:25:21.125Z,3.55
2022-08-27T12:28:26.584Z,3.30
2022-08-27T12:31:29.015Z,4.05
2022-08-27T12:34:31.631Z,4.00
2022-08-27T12:37:37.802Z,3.50
2022-08-27T12:40:41.840Z,3.42
2022-08-27T12:43:43.473Z,3.60
2022-08-27T12:46:54.071Z,3.35
2022-08-27T12:49:57.717Z,3.70
2022-08-27T12:53:12.589Z,3.83
2022-08-27T12:56:29.305Z,3.80
2022-08-27T12:59:56.369Z,3.55
2022-08-27T13:03:13.009Z,3.28
2022-08-27T13:06:16.039Z,3.53
2022-08-27T13:09:25.369Z,2.85
2022-08-27T13:12:26.785Z,3.30
2022-08-27T13:15:28.300Z,3.10
2022-08-27T13:18:30.620Z,3.22
2022-08-27T13:21:35.487Z,3.10
2022-08-27T13:24:44.465Z,3.55
2022-08-27T13:27:51.620Z,2.80
2022-08-27T13:30:53.194Z,3.40
2022-08-27T13:33:58.644Z,2.83
2022-08-27T13:37:07.326Z,3.33
2022-08-27T13:40:10.262Z,3.47
2022-08-27T13:43:12.207Z,2.97
2022-08-27T13:46:14.405Z,3.08
2022-08-27T13:49:18.587Z,3.03
2022-08-27T13:52:30.671Z,2.85
2022-08-27T13:55:33.692Z,2.67
2022-08-27T13:58:36.002Z,3.40
2022-08-27T14:01:37.773Z,3.38
2022-08-27T14:04:43.747Z,3.30
2022-08-27T14:07:47.477Z,3.33
2022-08-27T14:11:09.076Z,3.35
2022-08-27T14:14:10.405Z,3.13
2022-08-27T14:17:25.732Z,3.45
2022-08-27T14:20:29.252Z,3.20
2022-08-27T14:23:32.536Z,3.05
2022-08-27T14:26:34.345Z,3.10
2022-08-27T14:29:36.041Z,3.40
2022-08-27T14:32:38.038Z,3.28
2022-08-27T14:35:40.257Z,2.90
2022-08-27T14:38:42.701Z,3.05
2022-08-27T14:41:43.998Z,3.30
2022-08-27T14:44:46.195Z,3.75
2022-08-27T14:47:47.471Z,3.00
2022-08-27T14:50:48.827Z,3.28
2022-08-27T14:53:51.312Z,2.97
2022-08-27T14:56:54.210Z,2.85
2022-08-27T14:59:55.766Z,3.05
2022-08-27T15:02:57.862Z,3.03
2022-08-27T15:05:59.169Z,2.90
2022-08-27T15:09:00.715Z,3.10
2022-08-27T15:12:03.216Z,2.88
2022-08-27T15:15:05.126Z,3.13
2022-08-27T15:18:06.813Z,3.03
2022-08-27T15:21:08.160Z,2.83
2022-08-27T15:24:17.364Z,2.92
2022-08-27T15:27:18.726Z,3.30
2022-08-27T15:30:24.977Z,3.70
2022-08-27T15:33:26.426Z,3.30
2022-08-27T15:36:27.870Z,3.10
2022-08-27T15:39:29.152Z,3.33
2022-08-27T15:42:32.914Z,3.30
2022-08-27T15:45:34.280Z,3.08
2022-08-27T15:48:35.683Z,3.17
2022-08-27T15:51:38.037Z,2.75
2022-08-27T15:54:39.702Z,3.30
2022-08-27T15:57:40.989Z,3.17
2022-08-27T16:00:43.217Z,2.85
2022-08-27T16:03:45.991Z,3.13
2022-08-27T16:06:49.027Z,2.70
2022-08-27T16:09:50.432Z,3.00
2022-08-27T16:12:51.771Z,3.08
2022-08-27T16:15:54.243Z,3.13
2022-08-27T16:18:55.719Z,3.60
2022-08-27T16:21:57.018Z,3.60
2022-08-27T16:24:58.294Z,3.15
2022-08-27T16:28:01.514Z,3.30
2022-08-27T16:31:03.264Z,3.50
2022-08-27T16:34:08.986Z,3.72
2022-08-27T16:37:10.461Z,3.38
2022-08-27T16:40:13.218Z,3.35
2022-08-27T16:43:15.818Z,3.30
2022-08-27T16:46:17.172Z,3.50
2022-08-27T16:49:37.237Z,2.83
2022-08-27T16:52:38.503Z,2.88
2022-08-27T16:55:40.448Z,2.85
2022-08-27T16:58:41.707Z,3.25
2022-08-27T17:01:43.461Z,2.45
2022-08-27T17:04:49.265Z,3.45
2022-08-27T17:08:00.136Z,3.15
2022-08-27T17:11:02.266Z,3.25
2022-08-27T17:14:04.467Z,2.55
2022-08-27T17:17:05.827Z,2.67
2022-08-27T17:20:08.509Z,3.25
2022-08-27T17:23:15.023Z,3.25
2022-08-27T17:26:16.370Z,3.15
2022-08-27T17:29:17.714Z,3.03
2022-08-27T17:32:19.074Z,3.25
2022-08-27T17:35:20.412Z,2.33
2022-08-27T17:38:21.902Z,2.78
2022-08-27T17:41:33.928Z,2.95
2022-08-27T17:44:36.340Z,3.65
2022-08-27T17:47:37.673Z,3.47
2022-08-27T17:50:39.269Z,3.00
2022-08-27T17:53:47.011Z,2.70
2022-08-27T17:56:48.870Z,3.15
2022-08-27T17:59:50.581Z,2.75
2022-08-27T18:02:53.548Z,2.80
2022-08-27T18:05:54.833Z,2.47
2022-08-27T18:08:56.592Z,2.40
2022-08-27T18:11:58.497Z,3.00
2022-08-27T18:14:59.750Z,2.70
2022-08-27T18:18:01.381Z,2.90
2022-08-27T18:21:02.666Z,3.03
2022-08-27T18:24:04.423Z,2.60
2022-08-27T18:27:05.927Z,3.28
2022-08-27T18:30:08.296Z,2.65
2022-08-27T18:33:10.025Z,3.05
2022-08-27T18:36:11.393Z,2.90
2022-08-27T18:39:12.771Z,2.50
2022-08-27T18:42:14.593Z,2.72
2022-08-27T18:45:17.531Z,2.50
2022-08-27T18:48:21.534Z,3.17
2022-08-27T18:51:22.982Z,2.65
2022-08-27T18:54:24.842Z,3.05
2022-08-27T18:57:26.421Z,2.90
2022-08-27T19:00:28.590Z,2.92
2022-08-27T19:03:34.162Z,3.40
2022-08-27T19:06:36.058Z,2.95
2022-08-27T19:09:37.535Z,2.63
2022-08-27T19:12:38.821Z,2.70
2022-08-27T19:15:42.482Z,2.65
2022-08-27T19:18:44.502Z,2.33
2022-08-27T19:21:50.686Z,2.70
2022-08-27T19:24:53.494Z,2.55
2022-08-27T19:27:54.993Z,2.95
2022-08-27T19:30:56.557Z,2.58
2022-08-27T19:34:00.122Z,2.25
2022-08-27T19:37:01.835Z,2.28
2022-08-27T19:40:03.794Z,2.67
2022-08-27T19:43:05.209Z,2.30
2022-08-27T19:46:07.600Z,2.40
2022-08-27T19:49:09.069Z,2.35
2022-08-27T19:52:10.641Z,2.22
2022-08-27T19:55:14.343Z,2.42
2022-08-27T19:58:16.747Z,2.38
2022-08-27T20:01:18.528Z,2.40
2022-08-27T20:04:22.728Z,3.90
2022-08-27T20:07:24.560Z,2.47
2022-08-27T20:10:35.927Z,2.78
2022-08-27T20:13:38.235Z,3.40
2022-08-27T20:16:51.693Z,2.95
2022-08-27T20:19:53.019Z,3.45
2022-08-27T20:22:55.699Z,2.72
2022-08-27T20:26:01.259Z,2.67
2022-08-27T20:29:03.355Z,2.90
2022-08-27T20:32:04.748Z,3.13
2022-08-27T20:35:06.687Z,2.40
2022-08-27T20:38:08.056Z,2.30
2022-08-27T20:41:09.390Z,2.70
2022-08-27T20:44:10.768Z,2.92
2022-08-27T20:47:12.445Z,2.45
2022-08-27T20:50:14.448Z,2.85
2022-08-27T20:53:16.069Z,2.83
2022-08-27T20:56:17.764Z,2.67
2022-08-27T20:59:37.638Z,3.22
2022-08-27T21:02:40.293Z,2.65
2022-08-27T21:05:43.544Z,3.33
2022-08-27T21:08:44.854Z,2.50
2022-08-27T21:11:46.124Z,3.65
2022-08-27T21:14:47.413Z,2.72
2022-08-27T21:17:48.811Z,2.80
2022-08-27T21:20:50.126Z,3.05
2022-08-27T21:23:51.529Z,3.20
2022-08-27T21:26:52.849Z,2.65
2022-08-27T21:29:54.158Z,2.90
2022-08-27T21:32:55.894Z,2.88
2022-08-27T21:35:57.270Z,2.70
2022-08-27T21:38:59.442Z,2.75
2022-08-27T21:42:01.496Z,2.95
2022-08-27T21:45:03.120Z,2.55
2022-08-27T21:48:04.798Z,3.53
2022-08-27T21:51:07.337Z,2.25
2022-08-27T21:54:08.633Z,2.45
2022-08-27T21:57:10.670Z,2.83
2022-08-27T22:00:35.612Z,2.53
2022-08-27T22:03:37.054Z,2.60
2022-08-27T22:06:38.349Z,2.65
2022-08-27T22:09:39.646Z,2.35
2022-08-27T22:12:41.235Z,2.65
2022-08-27T22:15:42.675Z,2.60
2022-08-27T22:18:43.961Z,2.53
2022-08-27T22:21:45.834Z,2.58
2022-08-27T22:24:47.117Z,3.03
2022-08-27T22:27:48.495Z,2.53
2022-08-27T22:30:49.778Z,2.30
2022-08-27T22:33:51.176Z,2.38
2022-08-27T22:36:52.905Z,2.55
2022-08-27T22:39:55.056Z,2.55
2022-08-27T22:42:57.309Z,2.75
2022-08-27T22:45:58.751Z,2.40
2022-08-27T22:49:00.099Z,2.67
2022-08-27T22:52:01.451Z,2.47
2022-08-27T22:55:03.163Z,2.88
2022-08-27T22:58:04.711Z,2.40
2022-08-27T23:01:06.094Z,2.53
2022-08-27T23:04:07.858Z,2.35
2022-08-27T23:07:09.214Z,2.60
2022-08-27T23:10:11.752Z,2.55
2022-08-27T23:13:13.468Z,2.38
2022-08-27T23:16:15.817Z,3.03
2022-08-27T23:19:17.537Z,3.35
2022-08-27T23:22:18.878Z,3.05
2022-08-27T23:25:41.232Z,2.50
2022-08-27T23:28:45.167Z,2.85
2022-08-27T23:31:46.534Z,2.72
2022-08-27T23:34:47.947Z,2.97
2022-08-27T23:37:49.997Z,2.70
2022-08-27T23:40:52.072Z,2.80
2022-08-27T23:43:54.186Z,3.20
2022-08-27T23:46:55.911Z,2.92
2022-08-27T23:49:57.286Z,2.45
2022-08-27T23:52:58.636Z,2.65
2022-08-27T23:55:59.922Z,2.90
2022-08-27T23:59:01.216Z,2.60
